sensor_id;sensor_type;location;lat;lon;timestamp;P1;durP1;ratioP1;P2;durP2;ratioP2
40787;SDS011;26497;52.494;7.546;2022-07-29T00:01:54;6.63;;;0.90;;
40787;SDS011;26497;52.494;7.546;2022-07-29T00:04:21;9.50;;;2.10;;
40787;SDS011;26497;52.494;7.546;2022-07-29T00:06:48;3.70;;;0.90;;
40787;SDS011;26497;52.494;7.546;2022-07-29T00:09:15;4.00;;;1.30;;
40787;SDS011;26497;52.494;7.546;2022-07-29T00:11:42;4.38;;;1.13;;
40787;SDS011;26497;52.494;7.546;2022-07-29T00:14:09;6.30;;;1.30;;
40787;SDS011;26497;52.494;7.546;2022-07-29T00:16:36;1.83;;;1.05;;
40787;SDS011;26497;52.494;7.546;2022-07-29T00:19:05;5.07;;;0.63;;
40787;SDS011;26497;52.494;7.546;2022-07-29T00:21:31;2.72;;;0.68;;
40787;SDS011;26497;52.494;7.546;2022-07-29T00:23:58;5.28;;;0.77;;
40787;SDS011;26497;52.494;7.546;2022-07-29T00:26:26;3.10;;;0.90;;
40787;SDS011;26497;52.494;7.546;2022-07-29T00:28:56;2.40;;;0.68;;
40787;SDS011;26497;52.494;7.546;2022-07-29T00:31:24;0.90;;;0.70;;
40787;SDS011;26497;52.494;7.546;2022-07-29T00:33:51;3.25;;;0.77;;
40787;SDS011;26497;52.494;7.546;2022-07-29T00:36:19;4.05;;;0.77;;
40787;SDS011;26497;52.494;7.546;2022-07-29T00:38:46;4.95;;;0.75;;
40787;SDS011;26497;52.494;7.546;2022-07-29T00:41:13;4.72;;;0.77;;
40787;SDS011;26497;52.494;7.546;2022-07-29T00:43:40;6.93;;;1.33;;
40787;SDS011;26497;52.494;7.546;2022-07-29T00:46:07;6.88;;;0.75;;
40787;SDS011;26497;52.494;7.546;2022-07-29T00:48:34;1.58;;;0.80;;
40787;SDS011;26497;52.494;7.546;2022-07-29T00:51:02;2.70;;;0.80;;
40787;SDS011;26497;52.494;7.546;2022-07-29T00:53:32;10.68;;;1.35;;
40787;SDS011;26497;52.494;7.546;2022-07-29T00:55:59;2.17;;;0.80;;
40787;SDS011;26497;52.494;7.546;2022-07-29T00:58:27;5.90;;;0.98;;
40787;SDS011;26497;52.494;7.546;2022-07-29T01:00:54;2.67;;;0.80;;
40787;SDS011;26497;52.494;7.546;2022-07-29T01:03:21;7.65;;;0.90;;
40787;SDS011;26497;52.494;7.546;2022-07-29T01:05:48;5.05;;;0.90;;
40787;SDS011;26497;52.494;7.546;2022-07-29T01:08:15;6.47;;;0.82;;
40787;SDS011;26497;52.494;7.546;2022-07-29T01:10:44;1.42;;;0.57;;
40787;SDS011;26497;52.494;7.546;2022-07-29T01:13:12;2.55;;;0.50;;
40787;SDS011;26497;52.494;7.546;2022-07-29T01:15:43;1.98;;;0.73;;
40787;SDS011;26497;52.494;7.546;2022-07-29T01:18:16;4.35;;;1.10;;
40787;SDS011;26497;52.494;7.546;2022-07-29T01:20:56;1.65;;;1.35;;
40787;SDS011;26497;52.494;7.546;2022-07-29T01:24:28;3.17;;;1.05;;
40787;SDS011;26497;52.494;7.546;2022-07-29T01:27:09;2.55;;;1.23;;
40787;SDS011;26497;52.494;7.546;2022-07-29T01:29:55;3.97;;;1.30;;
40787;SDS011;26497;52.494;7.546;2022-07-29T01:34:54;5.25;;;1.02;;
40787;SDS011;26497;52.494;7.546;2022-07-29T01:37:29;7.45;;;0.93;;
40787;SDS011;26497;52.494;7.546;2022-07-29T01:40:11;6.32;;;0.90;;
40787;SDS011;26497;52.494;7.546;2022-07-29T01:42:54;5.22;;;1.48;;
40787;SDS011;26497;52.494;7.546;2022-07-29T01:45:26;0.80;;;0.50;;
40787;SDS011;26497;52.494;7.546;2022-07-29T01:48:04;4.60;;;1.08;;
40787;SDS011;26497;52.494;7.546;2022-07-29T01:50:42;3.90;;;0.68;;
40787;SDS011;26497;52.494;7.546;2022-07-29T01:53:16;2.88;;;0.70;;
40787;SDS011;26497;52.494;7.546;2022-07-29T01:55:51;2.42;;;0.73;;
40787;SDS011;26497;52.494;7.546;2022-07-29T01:58:21;7.65;;;1.05;;
40787;SDS011;26497;52.494;7.546;2022-07-29T02:00:50;4.80;;;1.00;;
40787;SDS011;26497;52.494;7.546;2022-07-29T02:03:19;2.78;;;1.00;;
40787;SDS011;26497;52.494;7.546;2022-07-29T02:05:48;5.13;;;0.65;;
40787;SDS011;26497;52.494;7.546;2022-07-29T02:08:17;7.47;;;0.88;;
40787;SDS011;26497;52.494;7.546;2022-07-29T02:10:46;4.15;;;0.95;;
40787;SDS011;26497;52.494;7.546;2022-07-29T02:13:15;3.70;;;0.93;;
40787;SDS011;26497;52.494;7.546;2022-07-29T02:15:44;4.63;;;0.80;;
40787;SDS011;26497;52.494;7.546;2022-07-29T02:18:14;2.35;;;0.90;;
40787;SDS011;26497;52.494;7.546;2022-07-29T02:20:44;4.53;;;1.17;;
40787;SDS011;26497;52.494;7.546;2022-07-29T02:23:19;3.55;;;1.42;;
40787;SDS011;26497;52.494;7.546;2022-07-29T02:25:48;2.47;;;0.90;;
40787;SDS011;26497;52.494;7.546;2022-07-29T02:28:18;4.95;;;1.65;;
40787;SDS011;26497;52.494;7.546;2022-07-29T02:30:46;2.38;;;0.82;;
40787;SDS011;26497;52.494;7.546;2022-07-29T02:33:18;7.25;;;1.13;;
40787;SDS011;26497;52.494;7.546;2022-07-29T02:35:47;1.83;;;1.20;;
40787;SDS011;26497;52.494;7.546;2022-07-29T02:38:15;4.45;;;1.55;;
40787;SDS011;26497;52.494;7.546;2022-07-29T02:41:02;3.95;;;1.02;;
40787;SDS011;26497;52.494;7.546;2022-07-29T02:43:34;3.00;;;1.05;;
40787;SDS011;26497;52.494;7.546;2022-07-29T02:46:02;4.95;;;1.00;;
40787;SDS011;26497;52.494;7.546;2022-07-29T02:48:34;7.30;;;1.02;;
40787;SDS011;26497;52.494;7.546;2022-07-29T02:51:07;5.22;;;1.02;;
40787;SDS011;26497;52.494;7.546;2022-07-29T02:53:42;7.25;;;1.55;;
40787;SDS011;26497;52.494;7.546;2022-07-29T02:56:15;2.60;;;1.00;;
40787;SDS011;26497;52.494;7.546;2022-07-29T02:58:45;5.68;;;0.75;;
40787;SDS011;26497;52.494;7.546;2022-07-29T03:01:20;5.38;;;1.00;;
40787;SDS011;26497;52.494;7.546;2022-07-29T03:03:52;1.00;;;0.60;;
40787;SDS011;26497;52.494;7.546;2022-07-29T03:06:20;1.30;;;0.63;;
40787;SDS011;26497;52.494;7.546;2022-07-29T03:08:50;2.92;;;0.82;;
40787;SDS011;26497;52.494;7.546;2022-07-29T03:11:18;2.88;;;1.00;;
40787;SDS011;26497;52.494;7.546;2022-07-29T03:13:45;2.30;;;0.70;;
40787;SDS011;26497;52.494;7.546;2022-07-29T03:16:13;13.77;;;2.47;;
40787;SDS011;26497;52.494;7.546;2022-07-29T03:18:41;1.35;;;0.70;;
40787;SDS011;26497;52.494;7.546;2022-07-29T03:21:10;5.22;;;1.02;;
40787;SDS011;26497;52.494;7.546;2022-07-29T03:23:37;2.53;;;1.00;;
40787;SDS011;26497;52.494;7.546;2022-07-29T03:26:10;7.18;;;1.23;;
40787;SDS011;26497;52.494;7.546;2022-07-29T03:28:37;5.22;;;0.98;;
40787;SDS011;26497;52.494;7.546;2022-07-29T03:31:04;3.95;;;1.52;;
40787;SDS011;26497;52.494;7.546;2022-07-29T03:33:31;6.55;;;1.23;;
40787;SDS011;26497;52.494;7.546;2022-07-29T03:35:58;5.47;;;1.33;;
40787;SDS011;26497;52.494;7.546;2022-07-29T03:38:29;5.05;;;1.48;;
40787;SDS011;26497;52.494;7.546;2022-07-29T03:41:00;4.80;;;1.10;;
40787;SDS011;26497;52.494;7.546;2022-07-29T03:43:32;6.72;;;1.30;;
40787;SDS011;26497;52.494;7.546;2022-07-29T03:46:04;3.42;;;1.08;;
40787;SDS011;26497;52.494;7.546;2022-07-29T03:48:34;3.15;;;0.85;;
40787;SDS011;26497;52.494;7.546;2022-07-29T03:51:05;5.38;;;1.00;;
40787;SDS011;26497;52.494;7.546;2022-07-29T03:53:34;3.65;;;1.27;;
40787;SDS011;26497;52.494;7.546;2022-07-29T03:56:02;0.95;;;0.60;;
40787;SDS011;26497;52.494;7.546;2022-07-29T03:58:31;7.72;;;2.08;;
40787;SDS011;26497;52.494;7.546;2022-07-29T04:01:00;4.32;;;0.85;;
40787;SDS011;26497;52.494;7.546;2022-07-29T04:03:27;10.88;;;1.20;;
40787;SDS011;26497;52.494;7.546;2022-07-29T04:05:57;4.85;;;1.23;;
40787;SDS011;26497;52.494;7.546;2022-07-29T04:08:27;9.50;;;1.00;;
40787;SDS011;26497;52.494;7.546;2022-07-29T04:10:55;10.38;;;1.27;;
40787;SDS011;26497;52.494;7.546;2022-07-29T04:13:22;2.33;;;0.95;;
40787;SDS011;26497;52.494;7.546;2022-07-29T04:15:49;6.88;;;1.20;;
40787;SDS011;26497;52.494;7.546;2022-07-29T04:18:16;5.47;;;1.00;;
40787;SDS011;26497;52.494;7.546;2022-07-29T04:20:43;3.45;;;1.00;;
40787;SDS011;26497;52.494;7.546;2022-07-29T04:23:10;5.90;;;0.95;;
40787;SDS011;26497;52.494;7.546;2022-07-29T04:25:37;3.83;;;1.35;;
40787;SDS011;26497;52.494;7.546;2022-07-29T04:28:07;2.78;;;1.23;;
40787;SDS011;26497;52.494;7.546;2022-07-29T04:30:35;1.50;;;1.10;;
40787;SDS011;26497;52.494;7.546;2022-07-29T04:33:04;6.93;;;1.17;;
40787;SDS011;26497;52.494;7.546;2022-07-29T04:35:34;3.40;;;0.95;;
40787;SDS011;26497;52.494;7.546;2022-07-29T04:38:02;5.43;;;0.95;;
40787;SDS011;26497;52.494;7.546;2022-07-29T04:40:30;5.18;;;1.65;;
40787;SDS011;26497;52.494;7.546;2022-07-29T04:42:58;4.95;;;1.33;;
40787;SDS011;26497;52.494;7.546;2022-07-29T04:45:27;16.20;;;0.77;;
40787;SDS011;26497;52.494;7.546;2022-07-29T04:47:54;1.17;;;0.75;;
40787;SDS011;26497;52.494;7.546;2022-07-29T04:50:22;7.43;;;0.93;;
40787;SDS011;26497;52.494;7.546;2022-07-29T04:52:49;4.07;;;1.00;;
40787;SDS011;26497;52.494;7.546;2022-07-29T04:55:16;4.75;;;1.25;;
40787;SDS011;26497;52.494;7.546;2022-07-29T04:57:43;0.80;;;0.50;;
40787;SDS011;26497;52.494;7.546;2022-07-29T05:00:10;3.28;;;0.90;;
40787;SDS011;26497;52.494;7.546;2022-07-29T05:02:40;2.25;;;1.20;;
40787;SDS011;26497;52.494;7.546;2022-07-29T05:05:07;2.03;;;0.90;;
40787;SDS011;26497;52.494;7.546;2022-07-29T05:07:34;5.57;;;1.02;;
40787;SDS011;26497;52.494;7.546;2022-07-29T05:10:02;1.10;;;0.60;;
40787;SDS011;26497;52.494;7.546;2022-07-29T05:12:30;2.45;;;0.88;;
40787;SDS011;26497;52.494;7.546;2022-07-29T05:14:57;6.15;;;1.85;;
40787;SDS011;26497;52.494;7.546;2022-07-29T05:17:24;2.35;;;0.90;;
40787;SDS011;26497;52.494;7.546;2022-07-29T05:19:52;5.00;;;1.10;;
40787;SDS011;26497;52.494;7.546;2022-07-29T05:22:19;1.88;;;0.80;;
40787;SDS011;26497;52.494;7.546;2022-07-29T05:24:47;5.50;;;1.02;;
40787;SDS011;26497;52.494;7.546;2022-07-29T05:27:14;3.03;;;1.23;;
40787;SDS011;26497;52.494;7.546;2022-07-29T05:29:41;8.52;;;1.60;;
40787;SDS011;26497;52.494;7.546;2022-07-29T05:32:08;6.30;;;1.02;;
40787;SDS011;26497;52.494;7.546;2022-07-29T05:34:35;6.72;;;1.55;;
40787;SDS011;26497;52.494;7.546;2022-07-29T05:37:03;2.90;;;0.70;;
40787;SDS011;26497;52.494;7.546;2022-07-29T05:39:30;4.03;;;0.93;;
40787;SDS011;26497;52.494;7.546;2022-07-29T05:41:57;5.10;;;1.17;;
40787;SDS011;26497;52.494;7.546;2022-07-29T05:44:24;1.58;;;0.90;;
40787;SDS011;26497;52.494;7.546;2022-07-29T05:46:51;10.13;;;0.82;;
40787;SDS011;26497;52.494;7.546;2022-07-29T05:49:18;4.47;;;0.93;;
40787;SDS011;26497;52.494;7.546;2022-07-29T05:51:45;8.93;;;1.20;;
40787;SDS011;26497;52.494;7.546;2022-07-29T05:54:15;15.45;;;1.40;;
40787;SDS011;26497;52.494;7.546;2022-07-29T05:56:42;3.22;;;0.85;;
40787;SDS011;26497;52.494;7.546;2022-07-29T05:59:09;1.30;;;0.52;;
40787;SDS011;26497;52.494;7.546;2022-07-29T06:01:36;1.85;;;0.68;;
40787;SDS011;26497;52.494;7.546;2022-07-29T06:04:04;2.05;;;0.90;;
40787;SDS011;26497;52.494;7.546;2022-07-29T06:06:31;2.22;;;0.55;;
40787;SDS011;26497;52.494;7.546;2022-07-29T06:08:59;3.75;;;0.80;;
40787;SDS011;26497;52.494;7.546;2022-07-29T06:11:27;3.85;;;1.05;;
40787;SDS011;26497;52.494;7.546;2022-07-29T06:13:55;5.05;;;1.10;;
40787;SDS011;26497;52.494;7.546;2022-07-29T06:16:22;5.25;;;1.10;;
40787;SDS011;26497;52.494;7.546;2022-07-29T06:18:48;6.38;;;0.80;;
40787;SDS011;26497;52.494;7.546;2022-07-29T06:21:15;3.35;;;1.30;;
40787;SDS011;26497;52.494;7.546;2022-07-29T06:23:42;6.60;;;1.08;;
40787;SDS011;26497;52.494;7.546;2022-07-29T06:26:11;3.42;;;1.17;;
40787;SDS011;26497;52.494;7.546;2022-07-29T06:28:39;3.88;;;1.33;;
40787;SDS011;26497;52.494;7.546;2022-07-29T06:31:06;3.08;;;0.90;;
40787;SDS011;26497;52.494;7.546;2022-07-29T06:33:33;6.25;;;1.10;;
40787;SDS011;26497;52.494;7.546;2022-07-29T06:36:02;6.55;;;1.13;;
40787;SDS011;26497;52.494;7.546;2022-07-29T06:38:30;3.90;;;1.20;;
40787;SDS011;26497;52.494;7.546;2022-07-29T06:40:58;2.70;;;0.90;;
40787;SDS011;26497;52.494;7.546;2022-07-29T06:43:26;3.50;;;0.85;;
40787;SDS011;26497;52.494;7.546;2022-07-29T06:45:57;3.47;;;1.20;;
40787;SDS011;26497;52.494;7.546;2022-07-29T06:48:26;1.42;;;0.43;;
40787;SDS011;26497;52.494;7.546;2022-07-29T06:50:54;4.57;;;0.88;;
40787;SDS011;26497;52.494;7.546;2022-07-29T06:53:21;6.38;;;0.77;;
40787;SDS011;26497;52.494;7.546;2022-07-29T06:55:48;2.72;;;0.65;;
40787;SDS011;26497;52.494;7.546;2022-07-29T06:58:15;3.65;;;0.55;;
40787;SDS011;26497;52.494;7.546;2022-07-29T07:00:45;4.50;;;0.80;;
40787;SDS011;26497;52.494;7.546;2022-07-29T07:03:13;3.60;;;0.95;;
40787;SDS011;26497;52.494;7.546;2022-07-29T07:05:41;1.50;;;1.02;;
40787;SDS011;26497;52.494;7.546;2022-07-29T07:08:08;2.03;;;0.77;;
40787;SDS011;26497;52.494;7.546;2022-07-29T07:10:35;1.48;;;0.68;;
40787;SDS011;26497;52.494;7.546;2022-07-29T07:13:02;2.38;;;0.98;;
40787;SDS011;26497;52.494;7.546;2022-07-29T07:15:30;3.50;;;0.80;;
40787;SDS011;26497;52.494;7.546;2022-07-29T07:17:58;7.95;;;0.95;;
40787;SDS011;26497;52.494;7.546;2022-07-29T07:20:26;3.35;;;0.82;;
40787;SDS011;26497;52.494;7.546;2022-07-29T07:22:54;7.13;;;1.58;;
40787;SDS011;26497;52.494;7.546;2022-07-29T07:25:21;2.60;;;1.00;;
40787;SDS011;26497;52.494;7.546;2022-07-29T07:27:48;2.10;;;0.75;;
40787;SDS011;26497;52.494;7.546;2022-07-29T07:30:15;8.50;;;0.98;;
40787;SDS011;26497;52.494;7.546;2022-07-29T07:32:42;5.10;;;1.02;;
40787;SDS011;26497;52.494;7.546;2022-07-29T07:35:09;4.28;;;1.25;;
40787;SDS011;26497;52.494;7.546;2022-07-29T07:37:38;6.55;;;0.70;;
40787;SDS011;26497;52.494;7.546;2022-07-29T07:40:06;3.00;;;0.63;;
40787;SDS011;26497;52.494;7.546;2022-07-29T07:42:36;6.40;;;1.10;;
40787;SDS011;26497;52.494;7.546;2022-07-29T07:45:03;2.15;;;0.50;;
40787;SDS011;26497;52.494;7.546;2022-07-29T07:47:32;7.13;;;1.27;;
40787;SDS011;26497;52.494;7.546;2022-07-29T07:49:59;2.97;;;0.80;;
40787;SDS011;26497;52.494;7.546;2022-07-29T07:52:26;3.47;;;1.27;;
40787;SDS011;26497;52.494;7.546;2022-07-29T07:54:54;2.08;;;0.80;;
40787;SDS011;26497;52.494;7.546;2022-07-29T07:57:21;7.65;;;1.10;;
40787;SDS011;26497;52.494;7.546;2022-07-29T07:59:48;3.13;;;1.05;;
40787;SDS011;26497;52.494;7.546;2022-07-29T08:02:15;1.33;;;0.65;;
40787;SDS011;26497;52.494;7.546;2022-07-29T08:04:42;3.55;;;1.23;;
40787;SDS011;26497;52.494;7.546;2022-07-29T08:07:09;1.80;;;0.65;;
40787;SDS011;26497;52.494;7.546;2022-07-29T08:09:36;4.10;;;1.30;;
40787;SDS011;26497;52.494;7.546;2022-07-29T08:12:05;7.05;;;1.52;;
40787;SDS011;26497;52.494;7.546;2022-07-29T08:14:32;5.38;;;1.52;;
40787;SDS011;26497;52.494;7.546;2022-07-29T08:16:59;6.30;;;0.98;;
40787;SDS011;26497;52.494;7.546;2022-07-29T08:19:26;2.63;;;1.13;;
40787;SDS011;26497;52.494;7.546;2022-07-29T08:21:53;3.83;;;1.13;;
40787;SDS011;26497;52.494;7.546;2022-07-29T08:24:20;3.40;;;1.60;;
40787;SDS011;26497;52.494;7.546;2022-07-29T08:27:07;3.22;;;1.23;;
40787;SDS011;26497;52.494;7.546;2022-07-29T08:29:34;9.00;;;0.95;;
40787;SDS011;26497;52.494;7.546;2022-07-29T08:32:01;3.67;;;0.82;;
40787;SDS011;26497;52.494;7.546;2022-07-29T08:34:29;5.90;;;1.20;;
40787;SDS011;26497;52.494;7.546;2022-07-29T08:36:56;3.25;;;1.08;;
40787;SDS011;26497;52.494;7.546;2022-07-29T08:39:23;4.50;;;0.90;;
40787;SDS011;26497;52.494;7.546;2022-07-29T08:41:50;3.35;;;0.88;;
40787;SDS011;26497;52.494;7.546;2022-07-29T08:44:19;9.95;;;1.70;;
40787;SDS011;26497;52.494;7.546;2022-07-29T08:46:47;5.38;;;1.23;;
40787;SDS011;26497;52.494;7.546;2022-07-29T08:49:15;7.32;;;1.30;;
40787;SDS011;26497;52.494;7.546;2022-07-29T08:51:43;10.07;;;1.70;;
40787;SDS011;26497;52.494;7.546;2022-07-29T08:54:10;1.23;;;0.60;;
40787;SDS011;26497;52.494;7.546;2022-07-29T08:56:42;11.13;;;1.65;;
40787;SDS011;26497;52.494;7.546;2022-07-29T08:59:09;8.35;;;1.65;;
40787;SDS011;26497;52.494;7.546;2022-07-29T09:01:38;1.40;;;0.80;;
40787;SDS011;26497;52.494;7.546;2022-07-29T09:04:10;4.63;;;1.10;;
40787;SDS011;26497;52.494;7.546;2022-07-29T09:06:39;13.07;;;2.45;;
40787;SDS011;26497;52.494;7.546;2022-07-29T09:09:10;8.57;;;1.58;;
40787;SDS011;26497;52.494;7.546;2022-07-29T09:11:39;9.48;;;1.15;;
40787;SDS011;26497;52.494;7.546;2022-07-29T09:14:06;3.58;;;0.85;;
40787;SDS011;26497;52.494;7.546;2022-07-29T09:16:45;4.10;;;1.10;;
40787;SDS011;26497;52.494;7.546;2022-07-29T09:19:19;4.55;;;0.80;;
40787;SDS011;26497;52.494;7.546;2022-07-29T09:21:51;3.30;;;1.50;;
40787;SDS011;26497;52.494;7.546;2022-07-29T09:24:24;6.63;;;1.45;;
40787;SDS011;26497;52.494;7.546;2022-07-29T09:27:02;5.30;;;1.70;;
40787;SDS011;26497;52.494;7.546;2022-07-29T09:29:33;6.57;;;1.05;;
40787;SDS011;26497;52.494;7.546;2022-07-29T09:32:01;4.20;;;1.35;;
40787;SDS011;26497;52.494;7.546;2022-07-29T09:34:35;3.78;;;1.02;;
40787;SDS011;26497;52.494;7.546;2022-07-29T09:37:03;6.90;;;1.60;;
40787;SDS011;26497;52.494;7.546;2022-07-29T09:39:31;9.90;;;1.55;;
40787;SDS011;26497;52.494;7.546;2022-07-29T09:42:02;4.75;;;0.85;;
40787;SDS011;26497;52.494;7.546;2022-07-29T09:44:40;20.63;;;2.22;;
40787;SDS011;26497;52.494;7.546;2022-07-29T09:47:14;3.53;;;1.17;;
40787;SDS011;26497;52.494;7.546;2022-07-29T09:49:50;5.65;;;1.55;;
40787;SDS011;26497;52.494;7.546;2022-07-29T09:52:22;4.00;;;1.02;;
40787;SDS011;26497;52.494;7.546;2022-07-29T09:54:50;5.50;;;1.10;;
40787;SDS011;26497;52.494;7.546;2022-07-29T09:57:23;5.00;;;0.98;;
40787;SDS011;26497;52.494;7.546;2022-07-29T09:59:56;5.13;;;1.33;;
40787;SDS011;26497;52.494;7.546;2022-07-29T10:02:30;9.45;;;1.85;;
40787;SDS011;26497;52.494;7.546;2022-07-29T10:04:58;5.40;;;1.38;;
40787;SDS011;26497;52.494;7.546;2022-07-29T10:07:27;8.23;;;0.80;;
40787;SDS011;26497;52.494;7.546;2022-07-29T10:10:11;8.43;;;1.35;;
40787;SDS011;26497;52.494;7.546;2022-07-29T10:12:50;7.25;;;1.30;;
40787;SDS011;26497;52.494;7.546;2022-07-29T10:15:21;5.35;;;1.15;;
40787;SDS011;26497;52.494;7.546;2022-07-29T10:17:51;7.22;;;1.02;;
40787;SDS011;26497;52.494;7.546;2022-07-29T10:20:20;7.60;;;1.33;;
40787;SDS011;26497;52.494;7.546;2022-07-29T10:22:47;10.15;;;1.42;;
40787;SDS011;26497;52.494;7.546;2022-07-29T10:25:17;2.65;;;0.95;;
40787;SDS011;26497;52.494;7.546;2022-07-29T10:27:45;8.07;;;1.70;;
40787;SDS011;26497;52.494;7.546;2022-07-29T10:30:14;11.95;;;1.60;;
40787;SDS011;26497;52.494;7.546;2022-07-29T10:32:57;2.30;;;0.90;;
40787;SDS011;26497;52.494;7.546;2022-07-29T10:35:45;9.57;;;1.35;;
40787;SDS011;26497;52.494;7.546;2022-07-29T10:38:45;4.32;;;1.00;;
40787;SDS011;26497;52.494;7.546;2022-07-29T10:41:33;9.90;;;2.05;;
40787;SDS011;26497;52.494;7.546;2022-07-29T10:44:14;2.15;;;1.08;;
40787;SDS011;26497;52.494;7.546;2022-07-29T10:46:44;12.90;;;2.42;;
40787;SDS011;26497;52.494;7.546;2022-07-29T10:49:13;7.53;;;1.35;;
40787;SDS011;26497;52.494;7.546;2022-07-29T10:51:52;6.18;;;1.70;;
40787;SDS011;26497;52.494;7.546;2022-07-29T10:54:40;7.05;;;1.90;;
40787;SDS011;26497;52.494;7.546;2022-07-29T10:57:17;7.93;;;1.88;;
40787;SDS011;26497;52.494;7.546;2022-07-29T11:02:57;3.90;;;1.27;;
40787;SDS011;26497;52.494;7.546;2022-07-29T11:05:27;4.28;;;1.23;;
40787;SDS011;26497;52.494;7.546;2022-07-29T11:13:57;5.82;;;1.73;;
40787;SDS011;26497;52.494;7.546;2022-07-29T11:16:24;2.65;;;1.58;;
40787;SDS011;26497;52.494;7.546;2022-07-29T11:21:49;5.00;;;1.45;;
40787;SDS011;26497;52.494;7.546;2022-07-29T11:24:18;4.15;;;1.23;;
40787;SDS011;26497;52.494;7.546;2022-07-29T11:29:39;5.10;;;1.52;;
40787;SDS011;26497;52.494;7.546;2022-07-29T11:32:15;2.28;;;1.33;;
40787;SDS011;26497;52.494;7.546;2022-07-29T11:34:44;4.07;;;1.27;;
40787;SDS011;26497;52.494;7.546;2022-07-29T11:37:15;8.90;;;2.17;;
40787;SDS011;26497;52.494;7.546;2022-07-29T11:42:45;2.50;;;2.22;;
40787;SDS011;26497;52.494;7.546;2022-07-29T11:45:16;10.40;;;2.00;;
40787;SDS011;26497;52.494;7.546;2022-07-29T11:47:57;10.77;;;2.00;;
40787;SDS011;26497;52.494;7.546;2022-07-29T11:50:29;7.47;;;1.75;;
40787;SDS011;26497;52.494;7.546;2022-07-29T11:53:05;8.27;;;1.70;;
40787;SDS011;26497;52.494;7.546;2022-07-29T11:55:38;6.40;;;1.58;;
40787;SDS011;26497;52.494;7.546;2022-07-29T11:58:06;4.22;;;2.00;;
40787;SDS011;26497;52.494;7.546;2022-07-29T12:00:34;4.82;;;1.77;;
40787;SDS011;26497;52.494;7.546;2022-07-29T12:03:07;5.97;;;2.67;;
40787;SDS011;26497;52.494;7.546;2022-07-29T12:05:37;7.50;;;2.20;;
40787;SDS011;26497;52.494;7.546;2022-07-29T12:08:08;4.22;;;2.05;;
40787;SDS011;26497;52.494;7.546;2022-07-29T12:10:41;10.98;;;2.10;;
40787;SDS011;26497;52.494;7.546;2022-07-29T12:13:10;12.25;;;2.78;;
40787;SDS011;26497;52.494;7.546;2022-07-29T12:15:38;6.88;;;2.08;;
40787;SDS011;26497;52.494;7.546;2022-07-29T12:18:09;9.00;;;2.00;;
40787;SDS011;26497;52.494;7.546;2022-07-29T12:20:37;12.52;;;2.13;;
40787;SDS011;26497;52.494;7.546;2022-07-29T12:23:05;4.55;;;2.60;;
40787;SDS011;26497;52.494;7.546;2022-07-29T12:25:36;5.75;;;2.17;;
40787;SDS011;26497;52.494;7.546;2022-07-29T12:28:07;4.38;;;2.63;;
40787;SDS011;26497;52.494;7.546;2022-07-29T12:30:38;4.35;;;2.22;;
40787;SDS011;26497;52.494;7.546;2022-07-29T12:33:15;7.78;;;2.17;;
40787;SDS011;26497;52.494;7.546;2022-07-29T12:35:46;7.38;;;2.78;;
40787;SDS011;26497;52.494;7.546;2022-07-29T12:38:18;4.32;;;2.38;;
40787;SDS011;26497;52.494;7.546;2022-07-29T12:40:46;10.23;;;1.90;;
40787;SDS011;26497;52.494;7.546;2022-07-29T12:43:16;5.90;;;2.97;;
40787;SDS011;26497;52.494;7.546;2022-07-29T12:45:46;8.80;;;3.15;;
40787;SDS011;26497;52.494;7.546;2022-07-29T12:48:16;10.50;;;2.80;;
40787;SDS011;26497;52.494;7.546;2022-07-29T12:50:54;9.35;;;2.80;;
40787;SDS011;26497;52.494;7.546;2022-07-29T12:53:24;2.53;;;2.25;;
40787;SDS011;26497;52.494;7.546;2022-07-29T12:55:52;8.43;;;2.67;;
40787;SDS011;26497;52.494;7.546;2022-07-29T12:58:28;4.55;;;2.22;;
40787;SDS011;26497;52.494;7.546;2022-07-29T13:01:07;11.32;;;2.83;;
40787;SDS011;26497;52.494;7.546;2022-07-29T13:03:47;4.28;;;2.78;;
40787;SDS011;26497;52.494;7.546;2022-07-29T13:06:27;3.63;;;2.33;;
40787;SDS011;26497;52.494;7.546;2022-07-29T13:09:01;11.00;;;3.28;;
40787;SDS011;26497;52.494;7.546;2022-07-29T13:11:32;7.35;;;2.85;;
40787;SDS011;26497;52.494;7.546;2022-07-29T13:14:00;7.07;;;2.47;;
40787;SDS011;26497;52.494;7.546;2022-07-29T13:16:29;8.25;;;2.33;;
40787;SDS011;26497;52.494;7.546;2022-07-29T13:19:03;6.45;;;2.40;;
40787;SDS011;26497;52.494;7.546;2022-07-29T13:21:36;10.52;;;3.13;;
40787;SDS011;26497;52.494;7.546;2022-07-29T13:24:06;8.57;;;1.95;;
40787;SDS011;26497;52.494;7.546;2022-07-29T13:26:34;9.68;;;3.03;;
40787;SDS011;26497;52.494;7.546;2022-07-29T13:29:05;14.00;;;2.05;;
40787;SDS011;26497;52.494;7.546;2022-07-29T13:31:33;5.72;;;2.17;;
40787;SDS011;26497;52.494;7.546;2022-07-29T13:34:00;10.45;;;2.65;;
40787;SDS011;26497;52.494;7.546;2022-07-29T13:36:28;8.85;;;3.05;;
40787;SDS011;26497;52.494;7.546;2022-07-29T13:38:55;16.20;;;2.08;;
40787;SDS011;26497;52.494;7.546;2022-07-29T13:41:24;6.35;;;2.72;;
40787;SDS011;26497;52.494;7.546;2022-07-29T13:43:51;5.10;;;2.40;;
40787;SDS011;26497;52.494;7.546;2022-07-29T13:46:18;8.27;;;2.17;;
40787;SDS011;26497;52.494;7.546;2022-07-29T13:48:45;7.30;;;2.22;;
40787;SDS011;26497;52.494;7.546;2022-07-29T13:51:12;8.35;;;2.40;;
40787;SDS011;26497;52.494;7.546;2022-07-29T13:53:39;12.27;;;3.53;;
40787;SDS011;26497;52.494;7.546;2022-07-29T13:56:06;9.40;;;1.95;;
40787;SDS011;26497;52.494;7.546;2022-07-29T13:58:34;5.03;;;2.22;;
40787;SDS011;26497;52.494;7.546;2022-07-29T14:01:01;6.70;;;2.67;;
40787;SDS011;26497;52.494;7.546;2022-07-29T14:03:29;4.95;;;2.08;;
40787;SDS011;26497;52.494;7.546;2022-07-29T14:05:56;6.63;;;2.15;;
40787;SDS011;26497;52.494;7.546;2022-07-29T14:08:24;3.85;;;2.15;;
40787;SDS011;26497;52.494;7.546;2022-07-29T14:10:52;10.57;;;2.65;;
40787;SDS011;26497;52.494;7.546;2022-07-29T14:13:19;6.18;;;2.83;;
40787;SDS011;26497;52.494;7.546;2022-07-29T14:15:47;4.90;;;2.38;;
40787;SDS011;26497;52.494;7.546;2022-07-29T14:18:14;5.88;;;2.40;;
40787;SDS011;26497;52.494;7.546;2022-07-29T14:20:41;6.18;;;2.38;;
40787;SDS011;26497;52.494;7.546;2022-07-29T14:23:08;12.35;;;3.28;;
40787;SDS011;26497;52.494;7.546;2022-07-29T14:25:35;13.30;;;2.55;;
40787;SDS011;26497;52.494;7.546;2022-07-29T14:28:02;8.90;;;2.80;;
40787;SDS011;26497;52.494;7.546;2022-07-29T14:30:29;9.73;;;2.20;;
40787;SDS011;26497;52.494;7.546;2022-07-29T14:32:58;2.22;;;2.03;;
40787;SDS011;26497;52.494;7.546;2022-07-29T14:35:27;6.25;;;2.22;;
40787;SDS011;26497;52.494;7.546;2022-07-29T14:37:54;14.38;;;2.55;;
40787;SDS011;26497;52.494;7.546;2022-07-29T14:40:21;4.22;;;2.55;;
40787;SDS011;26497;52.494;7.546;2022-07-29T14:42:48;4.10;;;2.38;;
40787;SDS011;26497;52.494;7.546;2022-07-29T14:45:15;5.25;;;1.85;;
40787;SDS011;26497;52.494;7.546;2022-07-29T14:47:42;5.95;;;1.77;;
40787;SDS011;26497;52.494;7.546;2022-07-29T14:50:10;5.47;;;1.80;;
40787;SDS011;26497;52.494;7.546;2022-07-29T14:52:38;5.80;;;1.60;;
40787;SDS011;26497;52.494;7.546;2022-07-29T14:55:06;5.25;;;1.80;;
40787;SDS011;26497;52.494;7.546;2022-07-29T14:57:33;7.93;;;1.25;;
40787;SDS011;26497;52.494;7.546;2022-07-29T15:00:01;10.60;;;1.77;;
40787;SDS011;26497;52.494;7.546;2022-07-29T15:02:31;4.53;;;1.58;;
40787;SDS011;26497;52.494;7.546;2022-07-29T15:04:59;5.37;;;1.20;;
40787;SDS011;26497;52.494;7.546;2022-07-29T15:07:27;4.35;;;1.75;;
40787;SDS011;26497;52.494;7.546;2022-07-29T15:09:54;3.67;;;1.02;;
40787;SDS011;26497;52.494;7.546;2022-07-29T15:12:21;4.43;;;0.93;;
40787;SDS011;26497;52.494;7.546;2022-07-29T15:14:48;3.58;;;1.00;;
40787;SDS011;26497;52.494;7.546;2022-07-29T15:17:15;6.53;;;1.83;;
40787;SDS011;26497;52.494;7.546;2022-07-29T15:19:42;4.53;;;1.00;;
40787;SDS011;26497;52.494;7.546;2022-07-29T15:22:09;8.02;;;0.93;;